createdAt,value
2023-02-27T00:00:04.291Z,1021.30
2023-02-27T00:01:04.263Z,1021.31
2023-02-27T00:02:04.275Z,1021.34
2023-02-27T00:03:04.245Z,1021.31
2023-02-27T00:04:04.363Z,1021.32
2023-02-27T00:05:04.237Z,1021.34
2023-02-27T00:06:04.229Z,1021.37
2023-02-27T00:07:04.211Z,1021.36
2023-02-27T00:08:04.203Z,1021.36
2023-02-27T00:09:04.242Z,1021.38
2023-02-27T00:10:04.171Z,1021.36
2023-02-27T00:11:04.145Z,1021.39
2023-02-27T00:12:04.161Z,1021.40
2023-02-27T00:13:04.125Z,1021.36
2023-02-27T00:14:04.128Z,1021.40
2023-02-27T00:15:04.121Z,1021.37
2023-02-27T00:16:04.148Z,1021.37
2023-02-27T00:17:04.076Z,1021.39
2023-02-27T00:18:04.099Z,1021.37
2023-02-27T00:19:04.068Z,1021.40
2023-02-27T00:20:04.058Z,1021.38
2023-02-27T00:21:04.082Z,1021.38
2023-02-27T00:22:04.042Z,1021.34
2023-02-27T00:23:04.029Z,1021.36
2023-02-27T00:24:04.027Z,1021.39
2023-02-27T00:25:04.010Z,1021.41
2023-02-27T00:26:04.029Z,1021.38
2023-02-27T00:27:04.063Z,1021.37
2023-02-27T00:28:03.978Z,1021.39
2023-02-27T00:29:03.949Z,1021.39
2023-02-27T00:30:03.959Z,1021.42
2023-02-27T00:31:04.075Z,1021.38
2023-02-27T00:32:04.039Z,1021.39
2023-02-27T00:33:03.908Z,1021.42
2023-02-27T00:34:03.909Z,1021.41
2023-02-27T00:35:03.909Z,1021.37
2023-02-27T00:36:03.878Z,1021.40
2023-02-27T00:37:03.898Z,1021.36
2023-02-27T00:38:03.878Z,1021.39
2023-02-27T00:39:03.832Z,1021.40
2023-02-27T00:40:03.909Z,1021.42
2023-02-27T00:41:03.839Z,1021.42
2023-02-27T00:42:03.811Z,1021.44
2023-02-27T00:43:03.805Z,1021.44
2023-02-27T00:44:03.788Z,1021.46
2023-02-27T00:45:03.771Z,1021.41
2023-02-27T00:46:03.785Z,1021.42
2023-02-27T00:47:03.776Z,1021.43
2023-02-27T00:48:03.784Z,1021.44
2023-02-27T00:49:03.744Z,1021.41
2023-02-27T00:50:03.742Z,1021.41
2023-02-27T00:51:03.724Z,1021.40
2023-02-27T00:52:03.720Z,1021.42
2023-02-27T00:53:03.711Z,1021.42
2023-02-27T00:54:03.691Z,1021.43
2023-02-27T00:55:03.745Z,1021.43
2023-02-27T00:56:03.652Z,1021.42
2023-02-27T00:57:03.659Z,1021.41
2023-02-27T00:58:03.674Z,1021.42
2023-02-27T00:59:03.619Z,1021.44
2023-02-27T01:00:03.625Z,1021.47
2023-02-27T01:01:03.696Z,1021.47
2023-02-27T01:02:03.592Z,1021.44
2023-02-27T01:03:03.587Z,1021.43
2023-02-27T01:04:03.579Z,1021.40
2023-02-27T01:05:03.590Z,1021.42
2023-02-27T01:06:03.553Z,1021.38
2023-02-27T01:07:03.605Z,1021.39
2023-02-27T01:08:03.553Z,1021.40
2023-02-27T01:09:03.513Z,1021.34
2023-02-27T01:10:03.532Z,1021.36
2023-02-27T01:11:03.496Z,1021.36
2023-02-27T01:12:03.490Z,1021.36
2023-02-27T01:13:03.494Z,1021.37
2023-02-27T01:14:03.464Z,1021.36
2023-02-27T01:15:03.480Z,1021.36
2023-02-27T01:16:03.491Z,1021.36
2023-02-27T01:17:03.451Z,1021.38
2023-02-27T01:18:03.437Z,1021.35
2023-02-27T01:19:03.397Z,1021.34
2023-02-27T01:20:03.390Z,1021.33
2023-02-27T01:21:03.446Z,1021.32
2023-02-27T01:22:03.385Z,1021.36
2023-02-27T01:23:03.363Z,1021.34
2023-02-27T01:24:03.374Z,1021.32
2023-02-27T01:25:03.350Z,1021.32
2023-02-27T01:26:03.336Z,1021.31
2023-02-27T01:27:03.369Z,1021.28
2023-02-27T01:28:03.314Z,1021.31
2023-02-27T01:29:05.944Z,1021.27
2023-02-27T01:30:03.285Z,1021.28
2023-02-27T01:31:03.327Z,1021.30
2023-02-27T01:32:03.366Z,1021.28
2023-02-27T01:33:03.305Z,1021.30
2023-02-27T01:34:03.248Z,1021.28
2023-02-27T01:35:03.235Z,1021.28
2023-02-27T01:36:03.230Z,1021.29
2023-02-27T01:37:03.239Z,1021.26
2023-02-27T01:38:03.226Z,1021.27
2023-02-27T01:39:03.199Z,1021.29
2023-02-27T01:40:03.178Z,1021.26
2023-02-27T01:41:03.178Z,1021.29
2023-02-27T01:42:03.172Z,1021.29
2023-02-27T01:43:03.173Z,1021.25
2023-02-27T01:44:03.140Z,1021.27
2023-02-27T01:45:03.130Z,1021.32
2023-02-27T01:46:03.173Z,1021.30
2023-02-27T01:47:03.099Z,1021.31
2023-02-27T01:48:03.091Z,1021.29
2023-02-27T01:49:03.088Z,1021.29
2023-02-27T01:50:03.085Z,1021.29
2023-02-27T01:51:03.088Z,1021.33
2023-02-27T01:52:03.076Z,1021.29
2023-02-27T01:53:03.045Z,1021.29
2023-02-27T01:54:03.054Z,1021.30
2023-02-27T01:55:03.017Z,1021.31
2023-02-27T01:56:03.014Z,1021.34
2023-02-27T01:57:03.001Z,1021.32
2023-02-27T01:58:02.996Z,1021.34
2023-02-27T01:59:02.982Z,1021.33
2023-02-27T02:00:02.979Z,1021.27
2023-02-27T02:01:03.028Z,1021.29
2023-02-27T02:02:02.993Z,1021.31
2023-02-27T02:03:02.941Z,1021.28
2023-02-27T02:04:02.932Z,1021.28
2023-02-27T02:05:02.914Z,1021.33
2023-02-27T02:06:02.896Z,1021.30
2023-02-27T02:07:02.893Z,1021.30
2023-02-27T02:08:02.888Z,1021.30
2023-02-27T02:09:02.867Z,1021.29
2023-02-27T02:10:02.848Z,1021.26
2023-02-27T02:11:02.861Z,1021.27
2023-02-27T02:12:02.828Z,1021.25
2023-02-27T02:13:02.842Z,1021.25
2023-02-27T02:14:02.844Z,1021.23
2023-02-27T02:15:02.823Z,1021.25
2023-02-27T02:16:02.810Z,1021.26
2023-02-27T02:17:02.789Z,1021.27
2023-02-27T02:18:02.763Z,1021.25
2023-02-27T02:19:02.746Z,1021.27
2023-02-27T02:20:02.744Z,1021.30
2023-02-27T02:21:03.993Z,1021.31
2023-02-27T02:22:02.747Z,1021.28
2023-02-27T02:23:02.716Z,1021.27
2023-02-27T02:24:02.723Z,1021.30
2023-02-27T02:25:02.710Z,1021.28
2023-02-27T02:26:02.685Z,1021.30
2023-02-27T02:27:02.685Z,1021.36
2023-02-27T02:28:02.663Z,1021.37
2023-02-27T02:29:02.673Z,1021.37
2023-02-27T02:30:02.623Z,1021.31
2023-02-27T02:31:02.721Z,1021.29
2023-02-27T02:32:02.724Z,1021.23
2023-02-27T02:33:02.635Z,1021.28
2023-02-27T02:34:02.604Z,1021.35
2023-02-27T02:35:02.621Z,1021.40
2023-02-27T02:36:02.611Z,1021.45
2023-02-27T02:37:02.597Z,1021.45
2023-02-27T02:38:02.569Z,1021.37
2023-02-27T02:39:02.551Z,1021.33
2023-02-27T02:40:02.511Z,1021.34
2023-02-27T02:41:02.516Z,1021.36
2023-02-27T02:42:02.579Z,1021.37
2023-02-27T02:43:02.501Z,1021.45
2023-02-27T02:44:02.505Z,1021.44
2023-02-27T02:45:02.470Z,1021.47
2023-02-27T02:46:02.519Z,1021.45
2023-02-27T02:47:02.450Z,1021.45
2023-02-27T02:48:02.447Z,1021.51
2023-02-27T02:49:02.441Z,1021.53
2023-02-27T02:50:02.416Z,1021.54
2023-02-27T02:51:02.400Z,1021.53
2023-02-27T02:52:02.397Z,1021.48
2023-02-27T02:53:02.403Z,1021.54
2023-02-27T02:54:02.378Z,1021.57
2023-02-27T02:55:02.363Z,1021.58
2023-02-27T02:56:02.341Z,1021.60
2023-02-27T02:57:02.343Z,1021.61
2023-02-27T02:58:02.344Z,1021.60
2023-02-27T02:59:02.335Z,1021.55
2023-02-27T03:00:02.326Z,1021.59
2023-02-27T03:01:02.293Z,1021.52
2023-02-27T03:02:02.284Z,1021.55
2023-02-27T03:03:02.285Z,1021.53
2023-02-27T03:04:02.312Z,1021.55
2023-02-27T03:05:02.270Z,1021.56
2023-02-27T03:06:02.258Z,1021.54
2023-02-27T03:07:02.234Z,1021.56
2023-02-27T03:08:02.214Z,1021.57
2023-02-27T03:09:02.230Z,1021.57
2023-02-27T03:10:02.216Z,1021.57
2023-02-27T03:11:02.192Z,1021.59
2023-02-27T03:12:02.199Z,1021.61
2023-02-27T03:13:02.216Z,1021.63
2023-02-27T03:14:02.170Z,1021.61
2023-02-27T03:15:02.154Z,1021.60
2023-02-27T03:16:02.189Z,1021.59
2023-02-27T03:17:02.159Z,1021.63
2023-02-27T03:18:02.116Z,1021.62
2023-02-27T03:19:02.123Z,1021.62
2023-02-27T03:20:02.101Z,1021.61
2023-02-27T03:21:02.100Z,1021.62
2023-02-27T03:22:02.084Z,1021.63
2023-02-27T03:23:02.078Z,1021.60
2023-02-27T03:24:02.051Z,1021.61
2023-02-27T03:25:02.040Z,1021.59
2023-02-27T03:26:02.074Z,1021.64
2023-02-27T03:27:02.020Z,1021.64
2023-02-27T03:28:02.030Z,1021.65
2023-02-27T03:29:01.997Z,1021.69
2023-02-27T03:30:01.982Z,1021.63
2023-02-27T03:31:02.058Z,1021.72
2023-02-27T03:32:02.094Z,1021.70
2023-02-27T03:33:01.959Z,1021.76
2023-02-27T03:34:01.940Z,1021.74
2023-02-27T03:35:01.920Z,1021.78
2023-02-27T03:36:01.907Z,1021.76
2023-02-27T03:37:01.908Z,1021.81
2023-02-27T03:38:01.905Z,1021.78
2023-02-27T03:39:01.877Z,1021.78
2023-02-27T03:40:01.866Z,1021.75
2023-02-27T03:41:01.859Z,1021.74
2023-02-27T03:42:01.846Z,1021.78
2023-02-27T03:43:01.858Z,1021.74
2023-02-27T03:44:02.537Z,1021.76
2023-02-27T03:45:01.834Z,1021.80
2023-02-27T03:46:01.861Z,1021.83
2023-02-27T03:47:01.833Z,1021.82
2023-02-27T03:48:01.773Z,1021.84
2023-02-27T03:49:01.780Z,1021.81
2023-02-27T03:50:01.792Z,1021.81
2023-02-27T03:51:01.772Z,1021.86
2023-02-27T03:52:01.730Z,1021.85
2023-02-27T03:53:01.752Z,1021.90
2023-02-27T03:54:01.727Z,1021.88
2023-02-27T03:55:01.698Z,1021.90
2023-02-27T03:56:01.703Z,1021.90
2023-02-27T03:57:01.699Z,1021.91
2023-02-27T03:58:01.675Z,1021.86
2023-02-27T03:59:01.684Z,1021.88
2023-02-27T04:00:01.637Z,1021.87
2023-02-27T04:01:01.636Z,1021.88
2023-02-27T04:02:01.756Z,1021.91
2023-02-27T04:03:01.663Z,1021.91
2023-02-27T04:04:01.631Z,1021.90
2023-02-27T04:05:01.585Z,1021.92
2023-02-27T04:06:01.602Z,1021.94
2023-02-27T04:07:01.576Z,1021.95
2023-02-27T04:08:01.588Z,1021.94
2023-02-27T04:09:01.582Z,1021.96
2023-02-27T04:10:01.564Z,1021.98
2023-02-27T04:11:01.548Z,1021.96
2023-02-27T04:12:01.524Z,1021.99
2023-02-27T04:13:01.509Z,1022.03
2023-02-27T04:14:01.489Z,1022.04
2023-02-27T04:15:01.507Z,1022.06
2023-02-27T04:16:01.517Z,1022.05
2023-02-27T04:17:01.480Z,1022.07
2023-02-27T04:18:01.439Z,1022.04
2023-02-27T04:19:01.504Z,1022.05
2023-02-27T04:20:01.477Z,1022.02
2023-02-27T04:21:01.440Z,1022.03
2023-02-27T04:22:01.411Z,1022.05
2023-02-27T04:23:01.406Z,1022.07
2023-02-27T04:24:01.380Z,1022.07
2023-02-27T04:25:01.409Z,1022.06
2023-02-27T04:26:01.373Z,1022.08
2023-02-27T04:27:01.372Z,1022.04
2023-02-27T04:28:01.360Z,1022.04
2023-02-27T04:29:01.329Z,1022.09
2023-02-27T04:30:01.341Z,1022.06
2023-02-27T04:31:01.435Z,1022.04
2023-02-27T04:32:01.494Z,1022.05
2023-02-27T04:33:01.318Z,1022.04
2023-02-27T04:34:01.292Z,1022.07
2023-02-27T04:35:01.279Z,1022.08
2023-02-27T04:36:01.257Z,1022.12
2023-02-27T04:37:01.337Z,1022.11
2023-02-27T04:38:01.252Z,1022.12
2023-02-27T04:39:01.235Z,1022.13
2023-02-27T04:40:01.203Z,1022.17
2023-02-27T04:41:01.238Z,1022.20
2023-02-27T04:42:01.219Z,1022.19
2023-02-27T04:43:01.194Z,1022.22
2023-02-27T04:44:01.161Z,1022.19
2023-02-27T04:45:01.176Z,1022.21
2023-02-27T04:46:01.210Z,1022.21
2023-02-27T04:47:01.159Z,1022.18
2023-02-27T04:48:01.124Z,1022.24
2023-02-27T04:49:01.133Z,1022.26
2023-02-27T04:50:01.131Z,1022.28
2023-02-27T04:51:01.096Z,1022.27
2023-02-27T04:52:01.096Z,1022.27
2023-02-27T04:53:01.109Z,1022.24
2023-02-27T04:54:01.056Z,1022.20
2023-02-27T04:55:01.096Z,1022.21
2023-02-27T04:56:01.056Z,1022.22
2023-02-27T04:57:01.057Z,1022.19
2023-02-27T04:58:01.018Z,1022.18
2023-02-27T04:59:01.036Z,1022.17
2023-02-27T05:00:01.104Z,1022.16
2023-02-27T05:01:00.993Z,1022.13
2023-02-27T05:02:01.061Z,1022.12
2023-02-27T05:03:01.067Z,1022.15
2023-02-27T05:04:01.010Z,1022.13
2023-02-27T05:05:00.962Z,1022.15
2023-02-27T05:06:00.945Z,1022.15
2023-02-27T05:07:00.970Z,1022.13
2023-02-27T05:08:00.901Z,1022.14
2023-02-27T05:09:00.953Z,1022.14
2023-02-27T05:10:00.886Z,1022.11
2023-02-27T05:11:00.908Z,1022.14
2023-02-27T05:12:00.982Z,1022.07
2023-02-27T05:13:00.859Z,1022.06
2023-02-27T05:14:00.886Z,1022.06
2023-02-27T05:15:00.852Z,1022.06
2023-02-27T05:16:00.903Z,1022.07
2023-02-27T05:17:07.823Z,1022.08
2023-02-27T05:18:00.901Z,1022.08
2023-02-27T05:19:00.796Z,1022.07
2023-02-27T05:20:08.318Z,1022.07
2023-02-27T05:21:00.788Z,1022.06
2023-02-27T05:22:00.756Z,1022.11
2023-02-27T05:23:00.788Z,1022.09
2023-02-27T05:24:00.747Z,1022.09
2023-02-27T05:25:00.747Z,1022.14
2023-02-27T05:26:00.805Z,1022.15
2023-02-27T05:27:00.723Z,1022.14
2023-02-27T05:28:00.712Z,1022.16
2023-02-27T05:29:00.735Z,1022.16
2023-02-27T05:30:00.712Z,1022.18
2023-02-27T05:31:00.720Z,1022.16
2023-02-27T05:32:00.710Z,1022.19
2023-02-27T05:33:00.693Z,1022.21
2023-02-27T05:34:00.661Z,1022.21
2023-02-27T05:35:00.635Z,1022.25
2023-02-27T05:36:00.720Z,1022.23
2023-02-27T05:37:00.618Z,1022.25
2023-02-27T05:38:00.591Z,1022.24
2023-02-27T05:39:00.600Z,1022.26
2023-02-27T05:40:00.550Z,1022.31
2023-02-27T05:41:00.549Z,1022.31
2023-02-27T05:42:00.563Z,1022.31
2023-02-27T05:43:00.532Z,1022.31
2023-02-27T05:44:00.636Z,1022.28
2023-02-27T05:45:00.651Z,1022.28
2023-02-27T05:46:00.707Z,1022.28
2023-02-27T05:47:00.861Z,1022.29
2023-02-27T05:48:00.562Z,1022.32
2023-02-27T05:49:00.662Z,1022.34
2023-02-27T05:50:00.562Z,1022.36
2023-02-27T05:51:00.472Z,1022.39
2023-02-27T05:52:00.565Z,1022.38
2023-02-27T05:53:00.416Z,1022.45
2023-02-27T05:54:00.422Z,1022.43
2023-02-27T05:55:00.398Z,1022.41
2023-02-27T05:56:00.402Z,1022.44
2023-02-27T05:57:00.368Z,1022.46
2023-02-27T05:58:00.442Z,1022.47
2023-02-27T05:59:00.401Z,1022.47
2023-02-27T06:00:00.370Z,1022.47
2023-02-27T06:01:00.357Z,1022.49
2023-02-27T06:02:00.395Z,1022.46
2023-02-27T06:03:00.297Z,1022.46
2023-02-27T06:04:00.326Z,1022.49
2023-02-27T06:05:00.337Z,1022.50
2023-02-27T06:06:00.326Z,1022.52
2023-02-27T06:07:00.291Z,1022.53
2023-02-27T06:08:00.263Z,1022.54
2023-02-27T06:09:00.258Z,1022.56
2023-02-27T06:10:00.275Z,1022.59
2023-02-27T06:11:00.317Z,1022.65
2023-02-27T06:12:00.215Z,1022.69
2023-02-27T06:13:00.207Z,1022.72
2023-02-27T06:14:00.201Z,1022.71
2023-02-27T06:15:00.240Z,1022.74
2023-02-27T06:16:00.175Z,1022.74
2023-02-27T06:17:00.229Z,1022.77
2023-02-27T06:18:00.149Z,1022.76
2023-02-27T06:19:00.155Z,1022.79
2023-02-27T06:20:00.199Z,1022.80
2023-02-27T06:21:00.175Z,1022.88
2023-02-27T06:22:00.110Z,1022.85
2023-02-27T06:23:00.137Z,1022.95
2023-02-27T06:24:00.144Z,1022.93
2023-02-27T06:25:00.170Z,1023.02
2023-02-27T06:26:00.080Z,1022.99
2023-02-27T06:27:00.080Z,1023.02
2023-02-27T06:28:00.076Z,1023.05
2023-02-27T06:29:01.651Z,1023.03
2023-02-27T06:30:00.151Z,1023.00
2023-02-27T06:31:00.181Z,1023.02
2023-02-27T06:32:00.245Z,1023.09
2023-02-27T06:33:00.276Z,1023.08
2023-02-27T06:34:00.034Z,1023.09
2023-02-27T06:35:00.176Z,1023.05
2023-02-27T06:36:00.019Z,1022.99
2023-02-27T06:37:00.626Z,1022.96
2023-02-27T06:38:00.091Z,1022.89
2023-02-27T06:39:00.537Z,1022.99
2023-02-27T06:40:00.092Z,1022.97
2023-02-27T06:41:00.038Z,1022.98
2023-02-27T06:41:59.895Z,1022.98
2023-02-27T06:42:59.889Z,1022.95
2023-02-27T06:43:59.863Z,1022.97
2023-02-27T06:44:59.861Z,1022.95
2023-02-27T06:45:59.868Z,1022.96
2023-02-27T06:47:00.077Z,1022.95
2023-02-27T06:47:59.820Z,1022.96
2023-02-27T06:48:59.794Z,1022.95
2023-02-27T06:49:59.836Z,1022.97
2023-02-27T06:50:59.823Z,1022.97
2023-02-27T06:51:59.783Z,1022.99
2023-02-27T06:52:59.759Z,1023.04
2023-02-27T06:53:59.775Z,1023.02
2023-02-27T06:54:59.762Z,1023.03
2023-02-27T06:55:59.757Z,1023.06
2023-02-27T06:56:59.710Z,1023.14
2023-02-27T06:57:59.753Z,1023.19
2023-02-27T06:58:59.719Z,1023.22
2023-02-27T06:59:59.694Z,1023.26
2023-02-27T07:00:59.679Z,1023.30
2023-02-27T07:01:59.673Z,1023.28
2023-02-27T07:02:59.649Z,1023.30
2023-02-27T07:03:59.652Z,1023.28
2023-02-27T07:04:59.673Z,1023.29
2023-02-27T07:05:59.621Z,1023.33
2023-02-27T07:07:34.631Z,1023.39
2023-02-27T07:08:00.612Z,1023.39
2023-02-27T07:09:02.844Z,1023.39
2023-02-27T07:10:00.609Z,1023.46
2023-02-27T07:10:59.573Z,1023.57
2023-02-27T07:11:59.570Z,1023.55
2023-02-27T07:12:59.563Z,1023.58
2023-02-27T07:13:59.543Z,1023.62
2023-02-27T07:14:59.519Z,1023.61
2023-02-27T07:15:59.571Z,1023.58
2023-02-27T07:16:59.505Z,1023.51
2023-02-27T07:17:59.584Z,1023.48
2023-02-27T07:18:59.554Z,1023.47
2023-02-27T07:19:59.551Z,1023.46
2023-02-27T07:20:59.459Z,1023.49
2023-02-27T07:21:59.463Z,1023.50
2023-02-27T07:22:59.465Z,1023.53
2023-02-27T07:23:59.507Z,1023.54
2023-02-27T07:24:59.514Z,1023.51
2023-02-27T07:25:59.407Z,1023.48
2023-02-27T07:26:59.390Z,1023.49
2023-02-27T07:27:59.402Z,1023.48
2023-02-27T07:28:59.387Z,1023.52
2023-02-27T07:29:59.455Z,1023.52
2023-02-27T07:30:59.409Z,1023.52
2023-02-27T07:31:59.381Z,1023.52
2023-02-27T07:32:59.371Z,1023.51
2023-02-27T07:33:59.338Z,1023.52
2023-02-27T07:34:59.342Z,1023.45
2023-02-27T07:35:59.360Z,1023.47
2023-02-27T07:36:59.348Z,1023.48
2023-02-27T07:37:59.318Z,1023.48
2023-02-27T07:38:59.271Z,1023.53
2023-02-27T07:39:59.297Z,1023.53
2023-02-27T07:40:59.306Z,1023.53
2023-02-27T07:41:59.241Z,1023.51
2023-02-27T07:42:59.249Z,1023.51
2023-02-27T07:43:59.225Z,1023.53
2023-02-27T07:44:59.202Z,1023.53
2023-02-27T07:45:59.190Z,1023.51
2023-02-27T07:46:59.240Z,1023.57
2023-02-27T07:47:59.169Z,1023.56
2023-02-27T07:48:59.195Z,1023.58
2023-02-27T07:49:59.160Z,1023.60
2023-02-27T07:50:59.163Z,1023.57
2023-02-27T07:51:59.144Z,1023.56
2023-02-27T07:52:59.123Z,1023.61
2023-02-27T07:53:59.124Z,1023.58
2023-02-27T07:54:59.125Z,1023.58
2023-02-27T07:55:59.094Z,1023.56
2023-02-27T07:56:59.164Z,1023.62
2023-02-27T07:57:59.109Z,1023.61
2023-02-27T07:58:59.075Z,1023.64
2023-02-27T07:59:59.075Z,1023.62
2023-02-27T08:00:59.043Z,1023.65
2023-02-27T08:01:59.010Z,1023.68
2023-02-27T08:02:59.110Z,1023.66
2023-02-27T08:03:59.088Z,1023.64
2023-02-27T08:04:59.090Z,1023.66
2023-02-27T08:06:01.234Z,1023.64
2023-02-27T08:06:58.979Z,1023.65
2023-02-27T08:07:59.213Z,1023.64
2023-02-27T08:08:58.974Z,1023.63
2023-02-27T08:09:58.955Z,1023.65
2023-02-27T08:10:58.923Z,1023.66
2023-02-27T08:11:58.922Z,1023.69
2023-02-27T08:12:58.904Z,1023.68
2023-02-27T08:14:01.020Z,1023.69
2023-02-27T08:14:58.892Z,1023.68
2023-02-27T08:15:58.887Z,1023.70
2023-02-27T08:16:58.850Z,1023.73
2023-02-27T08:17:58.841Z,1023.74
2023-02-27T08:18:58.895Z,1023.76
2023-02-27T08:19:58.838Z,1023.72
2023-02-27T08:20:58.822Z,1023.76
2023-02-27T08:21:58.809Z,1023.78
2023-02-27T08:22:58.802Z,1023.77
2023-02-27T08:23:58.810Z,1023.77
2023-02-27T08:24:58.779Z,1023.79
2023-02-27T08:25:58.793Z,1023.80
2023-02-27T08:26:58.756Z,1023.80
2023-02-27T08:27:58.755Z,1023.79
2023-02-27T08:28:58.728Z,1023.80
2023-02-27T08:29:58.714Z,1023.82
2023-02-27T08:30:58.744Z,1023.82
2023-02-27T08:31:58.862Z,1023.81
2023-02-27T08:32:58.687Z,1023.84
2023-02-27T08:34:09.499Z,1023.83
2023-02-27T08:34:59.668Z,1023.86
2023-02-27T08:35:58.700Z,1023.81
2023-02-27T08:36:58.649Z,1023.83
2023-02-27T08:37:58.658Z,1023.85
2023-02-27T08:38:58.626Z,1023.87
2023-02-27T08:39:58.619Z,1023.87
2023-02-27T08:40:58.592Z,1023.85
2023-02-27T08:41:58.581Z,1023.85
2023-02-27T08:42:58.552Z,1023.87
2023-02-27T08:43:58.588Z,1023.82
2023-02-27T08:44:58.530Z,1023.84
2023-02-27T08:45:58.658Z,1023.86
2023-02-27T08:46:58.555Z,1023.85
2023-02-27T08:47:58.564Z,1023.81
2023-02-27T08:48:58.539Z,1023.81
2023-02-27T08:49:58.527Z,1023.83
2023-02-27T08:50:58.499Z,1023.87
2023-02-27T08:51:58.468Z,1023.85
2023-02-27T08:52:58.483Z,1023.80
2023-02-27T08:53:58.474Z,1023.85
2023-02-27T08:54:58.420Z,1023.83
2023-02-27T08:55:58.444Z,1023.82
2023-02-27T08:56:58.406Z,1023.81
2023-02-27T08:57:58.420Z,1023.83
2023-02-27T08:58:58.393Z,1023.85
2023-02-27T08:59:58.440Z,1023.83
2023-02-27T09:00:58.491Z,1023.84
2023-02-27T09:01:58.401Z,1023.88
2023-02-27T09:02:58.461Z,1023.88
2023-02-27T09:03:58.378Z,1023.85
2023-02-27T09:04:58.342Z,1023.86
2023-02-27T09:05:58.318Z,1023.88
2023-02-27T09:06:58.327Z,1023.90
2023-02-27T09:07:58.330Z,1023.87
2023-02-27T09:08:58.294Z,1023.85
2023-02-27T09:09:58.278Z,1023.86
2023-02-27T09:10:58.275Z,1023.90
2023-02-27T09:11:58.286Z,1023.92
2023-02-27T09:12:58.240Z,1023.91
2023-02-27T09:13:58.245Z,1023.93
2023-02-27T09:14:58.208Z,1023.97
2023-02-27T09:15:58.218Z,1023.97
2023-02-27T09:16:58.248Z,1023.96
2023-02-27T09:17:58.187Z,1023.99
2023-02-27T09:18:58.207Z,1023.96
2023-02-27T09:19:58.179Z,1023.97
2023-02-27T09:20:58.148Z,1023.99
2023-02-27T09:21:58.157Z,1023.98
2023-02-27T09:22:58.136Z,1023.96
2023-02-27T09:24:02.569Z,1023.99
2023-02-27T09:24:59.109Z,1023.99
2023-02-27T09:25:58.114Z,1024.03
2023-02-27T09:26:58.086Z,1024.04
2023-02-27T09:27:58.094Z,1024.05
2023-02-27T09:28:58.067Z,1024.04
2023-02-27T09:29:58.062Z,1024.04
2023-02-27T09:30:58.083Z,1024.05
2023-02-27T09:31:58.123Z,1024.04
2023-02-27T09:32:58.024Z,1024.03
2023-02-27T09:33:58.030Z,1024.08
2023-02-27T09:34:57.994Z,1024.08
2023-02-27T09:35:58.162Z,1024.05
2023-02-27T09:36:57.993Z,1024.07
2023-02-27T09:37:57.969Z,1024.10
2023-02-27T09:38:57.977Z,1024.08
2023-02-27T09:39:57.966Z,1024.03
2023-02-27T09:40:57.939Z,1024.03
2023-02-27T09:41:57.957Z,1024.07
2023-02-27T09:42:57.996Z,1024.08
2023-02-27T09:43:57.907Z,1024.06
2023-02-27T09:44:57.906Z,1024.04
2023-02-27T09:45:57.992Z,1024.06
2023-02-27T09:46:57.876Z,1024.03
2023-02-27T09:47:57.980Z,1024.02
2023-02-27T09:48:57.964Z,1024.06
2023-02-27T09:49:57.908Z,1024.06
2023-02-27T09:50:57.884Z,1024.11
2023-02-27T09:51:57.829Z,1024.12
2023-02-27T09:52:57.885Z,1024.14
2023-02-27T09:53:57.829Z,1024.13
2023-02-27T09:54:57.786Z,1024.21
2023-02-27T09:55:57.764Z,1024.22
2023-02-27T09:56:57.778Z,1024.23
2023-02-27T09:57:57.767Z,1024.22
2023-02-27T09:58:57.887Z,1024.24
2023-02-27T09:59:57.728Z,1024.25
2023-02-27T10:00:57.702Z,1024.22
2023-02-27T10:01:57.748Z,1024.22
2023-02-27T10:02:57.763Z,1024.21
2023-02-27T10:03:57.698Z,1024.22
2023-02-27T10:04:57.683Z,1024.21
2023-02-27T10:05:57.684Z,1024.21
2023-02-27T10:06:57.647Z,1024.19
2023-02-27T10:07:57.645Z,1024.21
2023-02-27T10:08:57.655Z,1024.21
2023-02-27T10:09:57.702Z,1024.22
2023-02-27T10:10:57.694Z,1024.25
2023-02-27T10:11:57.623Z,1024.25
2023-02-27T10:12:57.626Z,1024.24
2023-02-27T10:13:57.596Z,1024.25
2023-02-27T10:14:57.589Z,1024.22
2023-02-27T10:15:57.564Z,1024.21
2023-02-27T10:16:57.598Z,1024.24
2023-02-27T10:17:57.546Z,1024.23
2023-02-27T10:18:57.561Z,1024.25
2023-02-27T10:19:57.648Z,1024.27
2023-02-27T10:20:57.510Z,1024.31
2023-02-27T10:21:57.504Z,1024.31
2023-02-27T10:22:58.167Z,1024.29
2023-02-27T10:23:57.517Z,1024.30
2023-02-27T10:24:57.480Z,1024.31
2023-02-27T10:25:58.189Z,1024.35
2023-02-27T10:26:57.441Z,1024.38
2023-02-27T10:27:58.105Z,1024.37
2023-02-27T10:28:57.404Z,1024.40
2023-02-27T10:29:57.418Z,1024.42
2023-02-27T10:30:57.431Z,1024.40
2023-02-27T10:31:57.385Z,1024.43
2023-02-27T10:32:57.378Z,1024.41
2023-02-27T10:33:57.428Z,1024.40
2023-02-27T10:34:57.428Z,1024.46
2023-02-27T10:35:57.375Z,1024.42
2023-02-27T10:36:57.343Z,1024.44
2023-02-27T10:37:57.350Z,1024.41
2023-02-27T10:38:57.319Z,1024.43
2023-02-27T10:39:57.312Z,1024.40
2023-02-27T10:40:57.904Z,1024.39
2023-02-27T10:41:57.287Z,1024.37
2023-02-27T10:42:57.265Z,1024.36
2023-02-27T10:43:57.276Z,1024.36
2023-02-27T10:44:57.295Z,1024.37
2023-02-27T10:45:57.366Z,1024.38
2023-02-27T10:46:57.214Z,1024.39
2023-02-27T10:47:57.201Z,1024.37
2023-02-27T10:48:57.225Z,1024.38
2023-02-27T10:49:57.190Z,1024.40
2023-02-27T10:50:57.229Z,1024.41
2023-02-27T10:51:57.201Z,1024.38
2023-02-27T10:52:57.154Z,1024.39
2023-02-27T10:53:57.158Z,1024.40
2023-02-27T10:54:57.190Z,1024.42
2023-02-27T10:55:57.123Z,1024.43
2023-02-27T10:56:57.114Z,1024.40
2023-02-27T10:57:57.144Z,1024.38
2023-02-27T10:58:57.091Z,1024.40
2023-02-27T10:59:57.122Z,1024.37
2023-02-27T11:00:57.053Z,1024.34
2023-02-27T11:01:57.118Z,1024.35
2023-02-27T11:02:57.030Z,1024.36
2023-02-27T11:03:57.062Z,1024.36
2023-02-27T11:04:57.119Z,1024.35
2023-02-27T11:05:57.029Z,1024.33
2023-02-27T11:06:57.003Z,1024.33
2023-02-27T11:07:57.084Z,1024.31
2023-02-27T11:08:57.016Z,1024.36
2023-02-27T11:09:56.994Z,1024.31
2023-02-27T11:10:56.977Z,1024.31
2023-02-27T11:11:56.948Z,1024.30
2023-02-27T11:12:57.027Z,1024.33
2023-02-27T11:13:56.918Z,1024.28
2023-02-27T11:14:56.925Z,1024.32
2023-02-27T11:15:56.905Z,1024.30
2023-02-27T11:16:56.907Z,1024.29
2023-02-27T11:17:56.933Z,1024.33
2023-02-27T11:18:56.857Z,1024.32
2023-02-27T11:19:56.869Z,1024.32
2023-02-27T11:20:56.852Z,1024.28
2023-02-27T11:21:56.831Z,1024.32
2023-02-27T11:22:56.816Z,1024.31
2023-02-27T11:23:56.799Z,1024.33
2023-02-27T11:24:56.811Z,1024.30
2023-02-27T11:25:56.776Z,1024.32
2023-02-27T11:26:56.783Z,1024.34
2023-02-27T11:27:56.763Z,1024.33
2023-02-27T11:28:56.781Z,1024.32
2023-02-27T11:29:56.741Z,1024.31
2023-02-27T11:30:56.765Z,1024.33
2023-02-27T11:31:56.740Z,1024.31
2023-02-27T11:32:56.710Z,1024.31
2023-02-27T11:33:56.705Z,1024.31
2023-02-27T11:34:56.783Z,1024.30
2023-02-27T11:35:57.282Z,1024.35
2023-02-27T11:36:56.657Z,1024.31
2023-02-27T11:37:56.665Z,1024.31
2023-02-27T11:38:56.644Z,1024.28
2023-02-27T11:39:56.628Z,1024.32
2023-02-27T11:40:56.627Z,1024.31
2023-02-27T11:41:56.620Z,1024.29
2023-02-27T11:42:56.611Z,1024.27
2023-02-27T11:43:56.601Z,1024.29
2023-02-27T11:44:56.612Z,1024.28
2023-02-27T11:46:09.876Z,1024.24
2023-02-27T11:46:57.571Z,1024.22
2023-02-27T11:47:58.285Z,1024.22
2023-02-27T11:48:56.578Z,1024.19
2023-02-27T11:49:56.537Z,1024.16
2023-02-27T11:50:56.533Z,1024.21
2023-02-27T11:51:56.510Z,1024.23
2023-02-27T11:52:56.502Z,1024.24
2023-02-27T11:53:56.543Z,1024.20
2023-02-27T11:54:56.565Z,1024.22
2023-02-27T11:55:56.485Z,1024.20
2023-02-27T11:56:56.465Z,1024.18
2023-02-27T11:57:56.526Z,1024.18
2023-02-27T11:58:56.490Z,1024.22
2023-02-27T11:59:56.420Z,1024.19
2023-02-27T12:00:56.396Z,1024.20
2023-02-27T12:01:56.399Z,1024.21
2023-02-27T12:02:56.421Z,1024.21
2023-02-27T12:03:56.432Z,1024.16
2023-02-27T12:04:56.376Z,1024.19